createdAt,value
2022-10-18T00:00:49.247Z,5.85
2022-10-18T00:03:16.083Z,5.82
2022-10-18T00:05:42.901Z,6.75
2022-10-18T00:08:12.428Z,6.13
2022-10-18T00:10:39.655Z,5.70
2022-10-18T00:13:06.465Z,4.00
2022-10-18T00:15:33.126Z,4.30
2022-10-18T00:17:59.762Z,4.50
2022-10-18T00:20:26.425Z,4.72
2022-10-18T00:22:53.014Z,4.00
2022-10-18T00:25:19.678Z,3.88
2022-10-18T00:27:48.595Z,3.83
2022-10-18T00:30:15.976Z,3.83
2022-10-18T00:32:45.036Z,4.63
2022-10-18T00:35:12.057Z,4.75
2022-10-18T00:37:38.629Z,3.80
2022-10-18T00:40:06.242Z,4.13
2022-10-18T00:42:35.474Z,4.35
2022-10-18T00:45:23.405Z,3.90
2022-10-18T00:48:02.133Z,3.13
2022-10-18T00:50:32.422Z,3.60
2022-10-18T00:53:02.474Z,3.63
2022-10-18T00:55:32.185Z,4.07
2022-10-18T00:58:01.713Z,3.65
2022-10-18T01:00:30.736Z,3.92
2022-10-18T01:02:59.497Z,3.88
2022-10-18T01:05:26.677Z,4.38
2022-10-18T01:08:05.618Z,3.88
2022-10-18T01:10:54.185Z,4.45
2022-10-18T01:13:25.773Z,4.75
2022-10-18T01:15:59.735Z,5.20
2022-10-18T01:18:52.941Z,4.45
2022-10-18T01:21:28.327Z,5.22
2022-10-18T01:24:30.644Z,4.88
2022-10-18T01:27:09.012Z,5.07
2022-10-18T01:29:45.272Z,6.18
2022-10-18T01:32:20.197Z,5.25
2022-10-18T01:34:50.139Z,4.68
2022-10-18T01:37:20.230Z,4.82
2022-10-18T01:39:48.372Z,5.60
2022-10-18T01:42:20.173Z,4.90
2022-10-18T01:44:48.711Z,4.35
2022-10-18T01:47:19.813Z,4.22
2022-10-18T01:49:46.842Z,4.78
2022-10-18T01:52:15.396Z,4.45
2022-10-18T01:54:49.139Z,6.03
2022-10-18T01:57:21.757Z,4.80
2022-10-18T02:00:16.739Z,4.85
2022-10-18T02:02:52.533Z,4.75
2022-10-18T02:05:32.717Z,5.15
2022-10-18T02:08:24.520Z,5.10
2022-10-18T02:10:57.204Z,4.65
2022-10-18T02:13:27.587Z,5.47
2022-10-18T02:15:59.492Z,5.03
2022-10-18T02:18:33.933Z,5.13
2022-10-18T02:21:03.885Z,5.18
2022-10-18T02:23:31.681Z,5.22
2022-10-18T02:25:58.430Z,4.95
2022-10-18T02:31:10.872Z,4.80
2022-10-18T02:33:55.936Z,4.63
2022-10-18T02:36:24.860Z,4.78
2022-10-18T02:38:58.811Z,4.57
2022-10-18T02:41:27.505Z,4.80
2022-10-18T02:43:54.490Z,4.60
2022-10-18T02:46:24.442Z,4.75
2022-10-18T02:48:52.337Z,4.10
2022-10-18T02:51:19.138Z,3.67
2022-10-18T02:53:46.005Z,4.68
2022-10-18T02:56:12.825Z,3.30
2022-10-18T02:58:42.416Z,3.13
2022-10-18T03:01:09.972Z,3.20
2022-10-18T03:03:36.794Z,2.60
2022-10-18T03:06:03.482Z,2.67
2022-10-18T03:08:32.356Z,2.88
2022-10-18T03:10:59.315Z,2.80
2022-10-18T03:15:55.420Z,2.90
2022-10-18T03:18:22.586Z,3.20
2022-10-18T03:20:49.559Z,3.30
2022-10-18T03:23:16.336Z,3.10
2022-10-18T03:25:45.690Z,2.55
2022-10-18T03:28:13.327Z,2.63
2022-10-18T03:30:39.844Z,2.25
2022-10-18T03:33:07.143Z,2.40
2022-10-18T03:35:34.002Z,2.47
2022-10-18T03:38:00.886Z,2.40
2022-10-18T03:40:27.736Z,2.53
2022-10-18T03:42:54.615Z,2.50
2022-10-18T03:45:21.491Z,2.53
2022-10-18T03:47:48.089Z,1.88
2022-10-18T03:50:14.943Z,2.10
2022-10-18T03:52:41.814Z,2.45
2022-10-18T03:55:12.030Z,3.05
2022-10-18T03:57:41.779Z,2.83
2022-10-18T04:00:09.471Z,2.83
2022-10-18T04:02:36.082Z,3.00
2022-10-18T04:05:02.872Z,2.25
2022-10-18T04:07:29.695Z,2.15
2022-10-18T04:09:56.554Z,2.97
2022-10-18T04:12:23.116Z,3.00
2022-10-18T04:14:55.727Z,2.33
2022-10-18T04:17:22.578Z,2.45
2022-10-18T04:19:49.478Z,1.90
2022-10-18T04:22:17.581Z,1.55
2022-10-18T04:27:11.227Z,1.63
2022-10-18T04:29:38.296Z,1.73
2022-10-18T04:32:07.137Z,2.47
2022-10-18T04:34:34.406Z,1.85
2022-10-18T04:37:01.390Z,2.40
2022-10-18T04:39:28.021Z,2.92
2022-10-18T04:41:55.262Z,2.65
2022-10-18T04:44:22.208Z,3.83
2022-10-18T04:46:48.995Z,2.47
2022-10-18T04:49:16.042Z,3.70
2022-10-18T04:51:42.613Z,3.00
2022-10-18T04:54:09.452Z,2.80
2022-10-18T04:56:36.127Z,2.55
2022-10-18T04:59:02.894Z,2.72
2022-10-18T05:01:32.032Z,2.55
2022-10-18T05:03:58.622Z,2.47
2022-10-18T05:06:25.877Z,1.83
2022-10-18T05:08:54.741Z,1.70
2022-10-18T05:11:21.597Z,1.83
2022-10-18T05:13:50.169Z,1.70
2022-10-18T05:16:20.334Z,1.40
2022-10-18T05:18:47.173Z,1.77
2022-10-18T05:21:14.439Z,1.85
2022-10-18T05:23:41.011Z,1.80
2022-10-18T05:26:09.199Z,2.20
2022-10-18T05:28:40.376Z,2.13
2022-10-18T05:31:09.712Z,3.50
2022-10-18T05:33:36.461Z,3.50
2022-10-18T05:36:03.360Z,3.08
2022-10-18T05:38:32.703Z,3.22
2022-10-18T05:41:00.080Z,2.90
2022-10-18T05:43:30.135Z,2.60
2022-10-18T05:45:56.828Z,2.60
2022-10-18T05:48:23.999Z,2.80
2022-10-18T05:50:53.451Z,3.43
2022-10-18T05:53:37.033Z,2.72
2022-10-18T05:56:04.656Z,2.58
2022-10-18T05:58:33.659Z,2.30
2022-10-18T06:01:01.800Z,2.03
2022-10-18T06:06:04.284Z,2.33
2022-10-18T06:08:34.549Z,2.47
2022-10-18T06:11:06.963Z,5.28
2022-10-18T06:13:34.170Z,3.40
2022-10-18T06:16:02.924Z,3.33
2022-10-18T06:18:30.499Z,3.95
2022-10-18T06:20:59.058Z,3.95
2022-10-18T06:23:27.548Z,3.15
2022-10-18T06:25:54.368Z,3.00
2022-10-18T06:28:22.338Z,3.00
2022-10-18T06:30:48.859Z,2.58
2022-10-18T06:33:15.894Z,2.50
2022-10-18T06:35:42.555Z,2.60
2022-10-18T06:38:09.789Z,2.53
2022-10-18T06:40:38.255Z,2.60
2022-10-18T06:43:20.601Z,2.70
2022-10-18T06:45:48.688Z,2.92
2022-10-18T06:48:15.756Z,3.60
2022-10-18T06:50:43.061Z,2.95
2022-10-18T06:53:10.045Z,2.75
2022-10-18T06:55:36.598Z,2.78
2022-10-18T06:58:03.423Z,3.38
2022-10-18T07:00:30.209Z,3.28
2022-10-18T07:02:57.746Z,2.90
2022-10-18T07:05:24.887Z,3.08
2022-10-18T07:07:54.290Z,3.00
2022-10-18T07:10:23.671Z,3.17
2022-10-18T07:12:51.567Z,3.05
2022-10-18T07:15:22.948Z,3.42
2022-10-18T07:17:52.455Z,3.00
2022-10-18T07:20:18.963Z,3.47
2022-10-18T07:22:45.625Z,2.97
2022-10-18T07:25:12.518Z,3.80
2022-10-18T07:27:43.422Z,3.20
2022-10-18T07:30:11.244Z,2.97
2022-10-18T07:32:38.072Z,3.05
2022-10-18T07:35:06.119Z,3.53
2022-10-18T07:39:59.668Z,2.70
2022-10-18T07:42:29.086Z,3.33
2022-10-18T07:44:55.985Z,3.78
2022-10-18T07:47:22.643Z,2.90
2022-10-18T07:49:49.973Z,2.58
2022-10-18T07:52:20.651Z,2.47
2022-10-18T07:54:47.870Z,2.50
2022-10-18T07:57:17.037Z,2.80
2022-10-18T07:59:48.238Z,3.40
2022-10-18T08:02:15.090Z,2.67
2022-10-18T08:04:41.721Z,2.83
2022-10-18T08:07:08.357Z,2.75
2022-10-18T08:09:34.888Z,3.10
2022-10-18T08:12:01.962Z,2.67
2022-10-18T08:14:29.200Z,3.78
2022-10-18T08:16:56.290Z,2.60
2022-10-18T08:19:23.537Z,3.47
2022-10-18T08:21:50.403Z,2.83
2022-10-18T08:24:19.515Z,3.55
2022-10-18T08:26:46.572Z,2.72
2022-10-18T08:29:23.303Z,3.08
2022-10-18T08:31:52.765Z,2.88
2022-10-18T08:34:20.101Z,3.00
2022-10-18T08:36:47.121Z,2.95
2022-10-18T08:39:13.672Z,2.80
2022-10-18T08:41:54.323Z,3.13
2022-10-18T08:44:25.666Z,3.38
2022-10-18T08:46:59.884Z,3.20
2022-10-18T08:49:36.427Z,3.00
2022-10-18T08:52:12.868Z,3.42
2022-10-18T08:54:54.138Z,3.33
2022-10-18T08:57:20.999Z,3.20
2022-10-18T08:59:47.534Z,4.15
2022-10-18T09:02:35.686Z,3.33
2022-10-18T09:05:22.658Z,3.50
2022-10-18T09:08:12.747Z,3.70
2022-10-18T09:11:19.034Z,3.67
2022-10-18T09:13:57.144Z,3.40
2022-10-18T09:16:46.515Z,4.07
2022-10-18T09:19:55.508Z,3.30
2022-10-18T09:22:37.004Z,3.30
2022-10-18T09:25:17.987Z,3.20
2022-10-18T09:28:04.749Z,3.40
2022-10-18T09:30:50.566Z,3.35
2022-10-18T09:33:29.221Z,3.42
2022-10-18T09:36:02.100Z,3.15
2022-10-18T09:38:32.666Z,3.00
2022-10-18T09:41:08.797Z,2.97
2022-10-18T09:43:40.222Z,2.75
2022-10-18T09:46:07.902Z,2.63
2022-10-18T09:51:26.623Z,2.60
2022-10-18T09:54:20.826Z,2.80
2022-10-18T09:57:06.953Z,2.78
2022-10-18T09:59:50.979Z,2.95
2022-10-18T10:02:25.390Z,3.22
2022-10-18T10:04:55.627Z,3.55
2022-10-18T10:07:37.907Z,2.70
2022-10-18T10:10:13.902Z,2.65
2022-10-18T10:12:41.573Z,2.58
2022-10-18T10:17:53.993Z,2.88
2022-10-18T10:20:31.481Z,2.85
2022-10-18T10:25:38.524Z,2.38
2022-10-18T10:28:16.984Z,1.92
2022-10-18T10:30:46.212Z,2.92
2022-10-18T10:33:31.713Z,2.30
2022-10-18T10:36:00.831Z,2.38
2022-10-18T10:38:30.614Z,1.75
2022-10-18T10:41:00.122Z,1.73
2022-10-18T10:43:38.211Z,2.03
2022-10-18T10:46:19.186Z,1.20
2022-10-18T10:48:50.709Z,1.85
2022-10-18T10:51:29.824Z,1.40
2022-10-18T10:54:25.304Z,1.20
2022-10-18T10:57:05.532Z,1.08
2022-10-18T10:59:58.243Z,1.50
2022-10-18T11:02:34.503Z,1.50
2022-10-18T11:05:29.511Z,1.33
2022-10-18T11:08:03.228Z,1.30
2022-10-18T11:10:37.693Z,1.15
2022-10-18T11:13:35.873Z,1.30
2022-10-18T11:16:13.430Z,1.50
2022-10-18T11:18:46.725Z,1.60
2022-10-18T11:21:23.137Z,1.20
2022-10-18T11:23:50.376Z,1.20
2022-10-18T11:26:54.648Z,1.17
2022-10-18T11:29:24.540Z,1.10
2022-10-18T11:32:03.685Z,1.08
2022-10-18T11:34:48.770Z,1.17
2022-10-18T11:37:40.144Z,0.90
2022-10-18T11:40:29.666Z,1.02
2022-10-18T11:43:08.334Z,1.05
2022-10-18T11:45:49.937Z,1.40
2022-10-18T11:48:22.052Z,0.90
2022-10-18T11:50:58.770Z,0.77
2022-10-18T11:53:52.011Z,1.00
2022-10-18T11:56:57.146Z,1.10
2022-10-18T11:59:38.246Z,1.30
2022-10-18T12:02:50.299Z,1.60
2022-10-18T12:05:23.530Z,1.35
2022-10-18T12:08:01.378Z,1.20
2022-10-18T12:13:44.896Z,1.73
2022-10-18T12:16:12.823Z,1.83
2022-10-18T12:18:50.164Z,0.90
2022-10-18T12:21:25.408Z,1.17
2022-10-18T12:24:11.690Z,1.25
2022-10-18T12:26:38.808Z,1.05
2022-10-18T12:29:26.444Z,1.30
2022-10-18T12:31:55.319Z,0.90
2022-10-18T12:34:21.873Z,1.13
2022-10-18T12:37:05.018Z,0.93
2022-10-18T12:40:09.333Z,1.33
2022-10-18T12:42:42.801Z,1.35
2022-10-18T12:45:34.304Z,1.40
2022-10-18T12:48:05.105Z,0.90
2022-10-18T12:50:36.461Z,1.20
2022-10-18T12:53:17.779Z,1.35
2022-10-18T12:55:53.991Z,1.08
2022-10-18T12:58:22.810Z,1.80
2022-10-18T13:00:49.565Z,1.20
2022-10-18T13:03:19.681Z,1.40
2022-10-18T13:06:09.430Z,1.08
2022-10-18T13:08:45.647Z,1.13
2022-10-18T13:11:12.182Z,1.77
2022-10-18T13:16:42.716Z,1.23
2022-10-18T13:19:34.155Z,1.60
2022-10-18T13:22:40.801Z,1.00
2022-10-18T13:25:25.177Z,1.17
2022-10-18T13:27:55.284Z,1.00
2022-10-18T13:30:22.139Z,1.42
2022-10-18T13:32:57.968Z,1.25
2022-10-18T13:35:45.930Z,1.98
2022-10-18T13:38:30.514Z,1.42
2022-10-18T13:43:54.072Z,1.08
2022-10-18T13:46:44.222Z,1.30
2022-10-18T13:49:16.162Z,1.33
2022-10-18T13:51:51.639Z,1.20
2022-10-18T13:54:23.805Z,1.10
2022-10-18T13:57:10.719Z,1.33
2022-10-18T13:59:56.049Z,1.13
2022-10-18T14:02:49.814Z,0.80
2022-10-18T14:05:27.733Z,1.20
2022-10-18T14:08:09.606Z,1.45
2022-10-18T14:11:07.323Z,1.88
2022-10-18T14:13:46.914Z,1.23
2022-10-18T14:16:32.494Z,2.47
2022-10-18T14:19:23.342Z,1.13
2022-10-18T14:21:58.812Z,1.38
2022-10-18T14:24:27.623Z,1.83
2022-10-18T14:27:14.069Z,1.27
2022-10-18T14:29:41.480Z,1.47
2022-10-18T14:32:10.701Z,1.35
2022-10-18T14:34:46.198Z,1.33
2022-10-18T14:37:26.773Z,1.75
2022-10-18T14:39:53.817Z,1.40
2022-10-18T14:42:27.635Z,1.17
2022-10-18T14:44:56.642Z,1.20
2022-10-18T14:47:29.165Z,1.23
2022-10-18T14:49:58.041Z,1.27
2022-10-18T14:52:35.226Z,1.38
2022-10-18T14:55:03.447Z,1.08
2022-10-18T15:00:06.157Z,1.92
2022-10-18T15:02:38.352Z,1.73
2022-10-18T15:05:18.137Z,1.45
2022-10-18T15:07:45.106Z,1.23
2022-10-18T15:10:25.625Z,1.83
2022-10-18T15:13:10.432Z,1.40
2022-10-18T15:15:37.715Z,1.48
2022-10-18T15:18:07.041Z,1.10
2022-10-18T15:20:42.602Z,1.30
2022-10-18T15:23:39.501Z,1.50
2022-10-18T15:26:09.498Z,0.85
2022-10-18T15:28:59.531Z,1.50
2022-10-18T15:31:34.670Z,1.35
2022-10-18T15:34:26.765Z,1.70
2022-10-18T15:36:55.982Z,1.40
2022-10-18T15:39:31.217Z,1.30
2022-10-18T15:42:04.973Z,1.10
2022-10-18T15:44:47.896Z,1.23
2022-10-18T15:47:20.493Z,1.55
2022-10-18T15:49:50.987Z,1.25
2022-10-18T15:52:38.639Z,1.38
2022-10-18T15:55:42.766Z,1.25
2022-10-18T15:58:45.667Z,1.38
2022-10-18T16:01:24.157Z,1.30
2022-10-18T16:03:51.983Z,1.88
2022-10-18T16:08:51.632Z,1.35
2022-10-18T16:11:24.228Z,1.35
2022-10-18T16:13:54.060Z,1.30
2022-10-18T16:16:26.462Z,1.42
2022-10-18T16:18:53.848Z,2.00
2022-10-18T16:21:27.732Z,1.25
2022-10-18T16:23:54.825Z,1.67
2022-10-18T16:26:22.601Z,1.85
2022-10-18T16:28:51.126Z,1.60
2022-10-18T16:31:23.853Z,2.17
2022-10-18T16:33:53.201Z,2.10
2022-10-18T16:36:25.977Z,2.85
2022-10-18T16:38:54.966Z,2.40
2022-10-18T16:41:22.089Z,2.22
2022-10-18T16:43:52.105Z,2.90
2022-10-18T16:46:24.490Z,2.35
2022-10-18T16:48:51.517Z,2.20
2022-10-18T16:51:18.156Z,3.37
2022-10-18T16:53:45.002Z,3.25
2022-10-18T16:56:17.878Z,3.75
2022-10-18T16:58:46.072Z,5.55
2022-10-18T17:01:15.403Z,5.78
2022-10-18T17:03:45.554Z,5.53
2022-10-18T17:06:18.890Z,4.90
2022-10-18T17:08:47.913Z,5.82
2022-10-18T17:11:23.103Z,5.65
2022-10-18T17:13:50.174Z,4.85
2022-10-18T17:18:56.772Z,4.25
2022-10-18T17:21:24.954Z,4.40
2022-10-18T17:23:51.792Z,3.75
2022-10-18T17:26:28.987Z,3.15
2022-10-18T17:28:59.583Z,3.13
2022-10-18T17:31:26.648Z,3.17
2022-10-18T17:33:58.855Z,3.13
2022-10-18T17:36:26.279Z,3.05
2022-10-18T17:38:54.313Z,3.17
2022-10-18T17:44:08.001Z,3.75
2022-10-18T17:46:34.893Z,4.03
2022-10-18T17:49:02.937Z,4.07
2022-10-18T17:53:56.116Z,3.10
2022-10-18T17:56:22.610Z,3.17
2022-10-18T17:58:52.421Z,2.90
2022-10-18T18:01:22.072Z,4.55
2022-10-18T18:03:49.384Z,3.17
2022-10-18T18:06:21.867Z,2.80
2022-10-18T18:08:50.044Z,3.00
2022-10-18T18:11:18.119Z,3.05
2022-10-18T18:16:22.086Z,2.25
2022-10-18T18:18:52.624Z,2.17
2022-10-18T18:21:20.960Z,1.90
2022-10-18T18:23:48.612Z,2.40
2022-10-18T18:26:15.619Z,1.80
2022-10-18T18:28:43.141Z,2.20
2022-10-18T18:31:15.984Z,2.20
2022-10-18T18:33:43.899Z,2.95
2022-10-18T18:36:12.809Z,1.80
2022-10-18T18:38:42.899Z,1.42
2022-10-18T18:41:13.095Z,0.90
2022-10-18T18:43:42.682Z,1.15
2022-10-18T18:46:10.331Z,1.15
2022-10-18T18:48:38.024Z,1.27
2022-10-18T18:51:06.289Z,1.25
2022-10-18T18:53:33.340Z,1.48
2022-10-18T18:56:05.986Z,4.85
2022-10-18T18:58:35.004Z,2.55
2022-10-18T19:01:15.063Z,0.90
2022-10-18T19:03:43.228Z,1.40
2022-10-18T19:08:47.022Z,0.75
2022-10-18T19:11:16.209Z,1.15
2022-10-18T19:13:43.063Z,1.70
2022-10-18T19:16:17.598Z,1.77
2022-10-18T19:18:49.423Z,2.92
2022-10-18T19:21:16.749Z,3.67
2022-10-18T19:23:43.416Z,4.17
2022-10-18T19:26:12.586Z,3.65
2022-10-18T19:28:39.810Z,3.95
2022-10-18T19:31:07.709Z,2.78
2022-10-18T19:33:47.885Z,2.53
2022-10-18T19:36:15.894Z,2.28
2022-10-18T19:38:42.711Z,1.10
2022-10-18T19:41:12.019Z,1.27
2022-10-18T19:43:39.181Z,1.08
2022-10-18T19:46:06.126Z,0.73
2022-10-18T19:48:32.712Z,0.35
2022-10-18T19:51:09.347Z,1.60
2022-10-18T19:53:36.853Z,3.07
2022-10-18T19:56:05.731Z,2.00
2022-10-18T19:58:33.014Z,3.03
2022-10-18T20:01:00.590Z,2.57
2022-10-18T20:03:30.481Z,2.90
2022-10-18T20:05:59.736Z,2.53
2022-10-18T20:08:27.759Z,3.33
2022-10-18T20:10:55.309Z,2.65
2022-10-18T20:13:25.073Z,3.53
2022-10-18T20:15:53.362Z,4.35
2022-10-18T20:18:21.095Z,1.92
2022-10-18T20:20:49.071Z,1.90
2022-10-18T20:23:17.734Z,2.53
2022-10-18T20:26:02.224Z,3.10
2022-10-18T20:28:30.034Z,3.10
2022-10-18T20:31:18.423Z,2.78
2022-10-18T20:33:47.116Z,3.05
2022-10-18T20:36:15.775Z,3.15
2022-10-18T20:38:43.632Z,3.00
2022-10-18T20:41:13.377Z,2.75
2022-10-18T20:43:40.564Z,2.13
2022-10-18T20:46:08.452Z,1.75
2022-10-18T20:48:35.982Z,2.35
2022-10-18T20:51:07.022Z,1.70
2022-10-18T20:53:35.965Z,3.38
2022-10-18T20:56:12.889Z,2.40
2022-10-18T20:58:42.062Z,2.00
2022-10-18T21:01:35.772Z,2.10
2022-10-18T21:04:05.293Z,1.90
2022-10-18T21:06:34.511Z,1.70
2022-10-18T21:09:13.247Z,4.32
2022-10-18T21:11:42.167Z,4.03
2022-10-18T21:14:13.725Z,3.92
2022-10-18T21:16:41.282Z,4.15
2022-10-18T21:19:13.154Z,4.78
2022-10-18T21:21:45.247Z,4.68
2022-10-18T21:24:14.826Z,3.92
2022-10-18T21:26:43.386Z,5.38
2022-10-18T21:29:11.431Z,4.70
2022-10-18T21:31:40.992Z,5.25
2022-10-18T21:34:14.876Z,5.18
2022-10-18T21:36:44.018Z,4.60
2022-10-18T21:39:16.668Z,4.63
2022-10-18T21:41:44.399Z,4.70
2022-10-18T21:44:12.450Z,3.70
2022-10-18T21:46:40.465Z,2.50
2022-10-18T21:49:07.534Z,2.28
2022-10-18T21:51:34.418Z,2.88
2022-10-18T21:54:01.147Z,2.97
2022-10-18T21:56:31.564Z,3.72
2022-10-18T21:58:59.435Z,2.90
2022-10-18T22:01:37.566Z,2.50
2022-10-18T22:09:05.419Z,3.92
2022-10-18T22:11:35.695Z,4.07
2022-10-18T22:14:03.053Z,3.58
2022-10-18T22:16:29.874Z,3.00
2022-10-18T22:19:02.051Z,3.25
2022-10-18T22:21:29.443Z,2.88
2022-10-18T22:23:57.928Z,2.70
2022-10-18T22:26:30.369Z,2.60
2022-10-18T22:29:05.940Z,2.28
2022-10-18T22:31:35.853Z,2.15
2022-10-18T22:34:08.725Z,2.60
2022-10-18T22:36:35.847Z,3.03
2022-10-18T22:39:05.619Z,2.30
2022-10-18T22:41:32.787Z,2.63
2022-10-18T22:44:01.174Z,2.80
2022-10-18T22:46:30.834Z,1.85
2022-10-18T22:48:57.910Z,1.65
2022-10-18T22:51:27.200Z,1.67
2022-10-18T22:53:56.139Z,1.90
2022-10-18T22:56:23.879Z,2.10
2022-10-18T22:58:51.435Z,2.03
2022-10-18T23:01:21.319Z,1.60
2022-10-18T23:03:53.486Z,1.17
2022-10-18T23:06:20.226Z,1.65
2022-10-18T23:08:47.374Z,1.40
2022-10-18T23:11:17.110Z,1.80
2022-10-18T23:13:44.106Z,1.55
2022-10-18T23:16:10.782Z,2.30
2022-10-18T23:18:37.385Z,1.90
2022-10-18T23:21:05.739Z,1.85
2022-10-18T23:26:10.402Z,1.80
2022-10-18T23:28:39.625Z,2.03
2022-10-18T23:31:11.963Z,2.17
2022-10-18T23:33:39.482Z,2.30
2022-10-18T23:36:08.219Z,2.45
2022-10-18T23:38:37.974Z,1.95
2022-10-18T23:41:08.686Z,1.80
2022-10-18T23:43:36.088Z,1.48
2022-10-18T23:46:02.729Z,1.60
2022-10-18T23:48:30.031Z,1.70
2022-10-18T23:50:57.155Z,1.75
2022-10-18T23:53:25.001Z,1.80
2022-10-18T23:55:56.287Z,1.70
2022-10-18T23:58:23.910Z,1.45
